sensor_id;sensor_type;location;lat;lon;timestamp;P1;durP1;ratioP1;P2;durP2;ratioP2
2476;SDS011;1249;51.270;6.756;2023-04-15T00:01:57;7.00;;;2.57;;
2476;SDS011;1249;51.270;6.756;2023-04-15T00:04:23;2.60;;;2.40;;
2476;SDS011;1249;51.270;6.756;2023-04-15T00:06:52;2.73;;;2.30;;
2476;SDS011;1249;51.270;6.756;2023-04-15T00:09:19;4.17;;;2.73;;
2476;SDS011;1249;51.270;6.756;2023-04-15T00:11:45;2.60;;;2.37;;
2476;SDS011;1249;51.270;6.756;2023-04-15T00:14:11;6.60;;;2.93;;
2476;SDS011;1249;51.270;6.756;2023-04-15T00:16:37;3.07;;;2.87;;
2476;SDS011;1249;51.270;6.756;2023-04-15T00:19:03;2.53;;;2.33;;
2476;SDS011;1249;51.270;6.756;2023-04-15T00:21:29;3.10;;;2.60;;
2476;SDS011;1249;51.270;6.756;2023-04-15T00:23:55;5.50;;;3.43;;
2476;SDS011;1249;51.270;6.756;2023-04-15T00:26:20;3.10;;;2.60;;
2476;SDS011;1249;51.270;6.756;2023-04-15T00:28:46;2.70;;;2.50;;
2476;SDS011;1249;51.270;6.756;2023-04-15T00:31:14;3.03;;;2.73;;
2476;SDS011;1249;51.270;6.756;2023-04-15T00:33:40;3.70;;;2.90;;
2476;SDS011;1249;51.270;6.756;2023-04-15T00:36:06;3.30;;;3.00;;
2476;SDS011;1249;51.270;6.756;2023-04-15T00:38:32;3.27;;;2.87;;
2476;SDS011;1249;51.270;6.756;2023-04-15T00:40:58;9.10;;;3.07;;
2476;SDS011;1249;51.270;6.756;2023-04-15T00:43:24;4.23;;;3.20;;
2476;SDS011;1249;51.270;6.756;2023-04-15T00:45:51;2.97;;;2.77;;
2476;SDS011;1249;51.270;6.756;2023-04-15T00:48:18;2.80;;;2.60;;
2476;SDS011;1249;51.270;6.756;2023-04-15T00:50:44;2.50;;;2.30;;
2476;SDS011;1249;51.270;6.756;2023-04-15T00:53:10;3.07;;;2.77;;
2476;SDS011;1249;51.270;6.756;2023-04-15T00:55:36;4.13;;;3.30;;
2476;SDS011;1249;51.270;6.756;2023-04-15T00:58:02;4.47;;;2.70;;
2476;SDS011;1249;51.270;6.756;2023-04-15T01:00:27;4.77;;;2.60;;
2476;SDS011;1249;51.270;6.756;2023-04-15T01:02:54;3.17;;;2.90;;
2476;SDS011;1249;51.270;6.756;2023-04-15T01:05:19;5.37;;;3.33;;
2476;SDS011;1249;51.270;6.756;2023-04-15T01:07:45;3.63;;;2.70;;
2476;SDS011;1249;51.270;6.756;2023-04-15T01:10:12;2.97;;;2.60;;
2476;SDS011;1249;51.270;6.756;2023-04-15T01:12:37;4.30;;;3.07;;
2476;SDS011;1249;51.270;6.756;2023-04-15T01:15:03;3.23;;;2.93;;
2476;SDS011;1249;51.270;6.756;2023-04-15T01:17:29;2.93;;;2.73;;
2476;SDS011;1249;51.270;6.756;2023-04-15T01:19:55;2.83;;;2.53;;
2476;SDS011;1249;51.270;6.756;2023-04-15T01:22:24;2.80;;;2.47;;
2476;SDS011;1249;51.270;6.756;2023-04-15T01:25:11;3.50;;;3.10;;
2476;SDS011;1249;51.270;6.756;2023-04-15T01:27:39;4.00;;;2.43;;
2476;SDS011;1249;51.270;6.756;2023-04-15T01:30:06;4.50;;;3.40;;
2476;SDS011;1249;51.270;6.756;2023-04-15T01:32:36;3.43;;;2.80;;
2476;SDS011;1249;51.270;6.756;2023-04-15T01:35:02;3.70;;;2.80;;
2476;SDS011;1249;51.270;6.756;2023-04-15T01:37:27;3.50;;;3.20;;
2476;SDS011;1249;51.270;6.756;2023-04-15T01:39:54;5.23;;;3.40;;
2476;SDS011;1249;51.270;6.756;2023-04-15T01:42:21;3.63;;;2.30;;
2476;SDS011;1249;51.270;6.756;2023-04-15T01:44:46;3.40;;;3.07;;
2476;SDS011;1249;51.270;6.756;2023-04-15T01:47:12;4.27;;;2.57;;
2476;SDS011;1249;51.270;6.756;2023-04-15T01:49:38;2.80;;;2.60;;
2476;SDS011;1249;51.270;6.756;2023-04-15T01:52:03;3.00;;;2.80;;
2476;SDS011;1249;51.270;6.756;2023-04-15T01:54:29;2.93;;;2.63;;
2476;SDS011;1249;51.270;6.756;2023-04-15T01:56:55;3.03;;;2.77;;
2476;SDS011;1249;51.270;6.756;2023-04-15T01:59:20;4.17;;;3.30;;
2476;SDS011;1249;51.270;6.756;2023-04-15T02:01:46;3.33;;;3.00;;
2476;SDS011;1249;51.270;6.756;2023-04-15T02:04:12;3.00;;;2.80;;
2476;SDS011;1249;51.270;6.756;2023-04-15T02:06:43;3.10;;;2.90;;
2476;SDS011;1249;51.270;6.756;2023-04-15T02:09:10;3.10;;;2.90;;
2476;SDS011;1249;51.270;6.756;2023-04-15T02:11:35;3.70;;;2.70;;
2476;SDS011;1249;51.270;6.756;2023-04-15T02:14:01;5.63;;;3.40;;
2476;SDS011;1249;51.270;6.756;2023-04-15T02:16:31;4.97;;;3.20;;
2476;SDS011;1249;51.270;6.756;2023-04-15T02:18:58;3.87;;;2.93;;
2476;SDS011;1249;51.270;6.756;2023-04-15T02:21:25;3.57;;;2.90;;
2476;SDS011;1249;51.270;6.756;2023-04-15T02:23:50;3.27;;;2.90;;
2476;SDS011;1249;51.270;6.756;2023-04-15T02:26:18;3.00;;;2.80;;
2476;SDS011;1249;51.270;6.756;2023-04-15T02:28:44;3.97;;;3.10;;
2476;SDS011;1249;51.270;6.756;2023-04-15T02:31:10;3.83;;;3.30;;
2476;SDS011;1249;51.270;6.756;2023-04-15T02:33:36;7.47;;;3.60;;
2476;SDS011;1249;51.270;6.756;2023-04-15T02:36:01;4.23;;;2.57;;
2476;SDS011;1249;51.270;6.756;2023-04-15T02:38:27;6.50;;;3.10;;
2476;SDS011;1249;51.270;6.756;2023-04-15T02:40:53;4.80;;;3.70;;
2476;SDS011;1249;51.270;6.756;2023-04-15T02:43:19;3.40;;;3.10;;
2476;SDS011;1249;51.270;6.756;2023-04-15T02:45:45;4.03;;;3.23;;
2476;SDS011;1249;51.270;6.756;2023-04-15T02:48:11;4.90;;;3.10;;
2476;SDS011;1249;51.270;6.756;2023-04-15T02:50:37;4.63;;;3.67;;
2476;SDS011;1249;51.270;6.756;2023-04-15T02:53:05;4.67;;;3.47;;
2476;SDS011;1249;51.270;6.756;2023-04-15T02:55:31;5.30;;;3.73;;
2476;SDS011;1249;51.270;6.756;2023-04-15T02:57:57;6.13;;;3.30;;
2476;SDS011;1249;51.270;6.756;2023-04-15T03:00:24;8.17;;;3.20;;
2476;SDS011;1249;51.270;6.756;2023-04-15T03:02:50;5.13;;;3.50;;
2476;SDS011;1249;51.270;6.756;2023-04-15T03:05:20;3.73;;;3.40;;
2476;SDS011;1249;51.270;6.756;2023-04-15T03:07:48;6.50;;;4.20;;
2476;SDS011;1249;51.270;6.756;2023-04-15T03:10:14;4.30;;;3.83;;
2476;SDS011;1249;51.270;6.756;2023-04-15T03:12:39;3.47;;;3.17;;
2476;SDS011;1249;51.270;6.756;2023-04-15T03:15:05;4.30;;;3.90;;
2476;SDS011;1249;51.270;6.756;2023-04-15T03:17:32;3.17;;;2.77;;
2476;SDS011;1249;51.270;6.756;2023-04-15T03:19:57;5.00;;;3.80;;
2476;SDS011;1249;51.270;6.756;2023-04-15T03:22:23;4.63;;;4.33;;
2476;SDS011;1249;51.270;6.756;2023-04-15T03:24:50;3.70;;;3.40;;
2476;SDS011;1249;51.270;6.756;2023-04-15T03:27:16;4.00;;;3.60;;
2476;SDS011;1249;51.270;6.756;2023-04-15T03:29:41;4.37;;;3.60;;
2476;SDS011;1249;51.270;6.756;2023-04-15T03:32:07;4.43;;;4.03;;
2476;SDS011;1249;51.270;6.756;2023-04-15T03:34:32;4.13;;;3.83;;
2476;SDS011;1249;51.270;6.756;2023-04-15T03:36:58;5.33;;;3.90;;
2476;SDS011;1249;51.270;6.756;2023-04-15T03:39:23;5.17;;;4.40;;
2476;SDS011;1249;51.270;6.756;2023-04-15T03:41:49;5.83;;;4.43;;
2476;SDS011;1249;51.270;6.756;2023-04-15T03:44:14;5.23;;;4.37;;
2476;SDS011;1249;51.270;6.756;2023-04-15T03:46:40;9.23;;;4.50;;
2476;SDS011;1249;51.270;6.756;2023-04-15T03:49:06;4.80;;;4.33;;
2476;SDS011;1249;51.270;6.756;2023-04-15T03:51:31;6.97;;;4.00;;
2476;SDS011;1249;51.270;6.756;2023-04-15T03:53:57;4.40;;;4.00;;
2476;SDS011;1249;51.270;6.756;2023-04-15T03:56:23;4.53;;;4.00;;
2476;SDS011;1249;51.270;6.756;2023-04-15T03:58:49;5.70;;;4.30;;
2476;SDS011;1249;51.270;6.756;2023-04-15T04:01:14;4.43;;;4.03;;
2476;SDS011;1249;51.270;6.756;2023-04-15T04:03:40;6.30;;;4.87;;
2476;SDS011;1249;51.270;6.756;2023-04-15T04:06:06;5.77;;;3.87;;
2476;SDS011;1249;51.270;6.756;2023-04-15T04:08:32;4.97;;;4.40;;
2476;SDS011;1249;51.270;6.756;2023-04-15T04:10:58;5.07;;;4.60;;
2476;SDS011;1249;51.270;6.756;2023-04-15T04:13:23;8.90;;;4.27;;
2476;SDS011;1249;51.270;6.756;2023-04-15T04:15:49;4.37;;;4.03;;
2476;SDS011;1249;51.270;6.756;2023-04-15T04:18:15;4.80;;;4.37;;
2476;SDS011;1249;51.270;6.756;2023-04-15T04:20:40;4.90;;;4.43;;
2476;SDS011;1249;51.270;6.756;2023-04-15T04:23:06;5.10;;;4.60;;
2476;SDS011;1249;51.270;6.756;2023-04-15T04:25:31;5.53;;;3.83;;
2476;SDS011;1249;51.270;6.756;2023-04-15T04:27:57;5.03;;;4.60;;
2476;SDS011;1249;51.270;6.756;2023-04-15T04:30:23;5.10;;;4.60;;
2476;SDS011;1249;51.270;6.756;2023-04-15T04:32:49;8.90;;;3.97;;
2476;SDS011;1249;51.270;6.756;2023-04-15T04:35:15;7.23;;;4.30;;
2476;SDS011;1249;51.270;6.756;2023-04-15T04:37:41;4.80;;;4.17;;
2476;SDS011;1249;51.270;6.756;2023-04-15T04:40:07;7.93;;;5.07;;
2476;SDS011;1249;51.270;6.756;2023-04-15T04:42:33;5.30;;;4.80;;
2476;SDS011;1249;51.270;6.756;2023-04-15T04:44:59;5.37;;;4.87;;
2476;SDS011;1249;51.270;6.756;2023-04-15T04:47:24;6.47;;;4.13;;
2476;SDS011;1249;51.270;6.756;2023-04-15T04:49:50;5.60;;;5.10;;
2476;SDS011;1249;51.270;6.756;2023-04-15T04:52:15;4.93;;;4.53;;
2476;SDS011;1249;51.270;6.756;2023-04-15T04:54:41;6.00;;;5.50;;
2476;SDS011;1249;51.270;6.756;2023-04-15T04:57:06;6.30;;;4.37;;
2476;SDS011;1249;51.270;6.756;2023-04-15T04:59:32;7.33;;;5.67;;
2476;SDS011;1249;51.270;6.756;2023-04-15T05:01:58;8.67;;;5.53;;
2476;SDS011;1249;51.270;6.756;2023-04-15T05:04:23;10.33;;;5.87;;
2476;SDS011;1249;51.270;6.756;2023-04-15T05:06:49;4.50;;;3.90;;
2476;SDS011;1249;51.270;6.756;2023-04-15T05:09:14;10.53;;;4.83;;
2476;SDS011;1249;51.270;6.756;2023-04-15T05:11:40;6.60;;;5.20;;
2476;SDS011;1249;51.270;6.756;2023-04-15T05:14:06;5.00;;;4.37;;
2476;SDS011;1249;51.270;6.756;2023-04-15T05:16:31;5.00;;;4.50;;
2476;SDS011;1249;51.270;6.756;2023-04-15T05:18:57;5.57;;;5.07;;
2476;SDS011;1249;51.270;6.756;2023-04-15T05:21:22;6.70;;;5.00;;
2476;SDS011;1249;51.270;6.756;2023-04-15T05:23:51;4.40;;;3.93;;
2476;SDS011;1249;51.270;6.756;2023-04-15T05:26:17;10.37;;;5.20;;
2476;SDS011;1249;51.270;6.756;2023-04-15T05:28:42;5.87;;;5.07;;
2476;SDS011;1249;51.270;6.756;2023-04-15T05:31:09;5.60;;;5.07;;
2476;SDS011;1249;51.270;6.756;2023-04-15T05:33:35;6.07;;;5.53;;
2476;SDS011;1249;51.270;6.756;2023-04-15T05:36:01;6.87;;;5.63;;
2476;SDS011;1249;51.270;6.756;2023-04-15T05:38:26;7.17;;;5.57;;
2476;SDS011;1249;51.270;6.756;2023-04-15T05:40:52;7.30;;;6.10;;
2476;SDS011;1249;51.270;6.756;2023-04-15T05:43:17;10.83;;;6.77;;
2476;SDS011;1249;51.270;6.756;2023-04-15T05:45:43;7.23;;;6.53;;
2476;SDS011;1249;51.270;6.756;2023-04-15T05:48:08;7.47;;;6.00;;
2476;SDS011;1249;51.270;6.756;2023-04-15T05:50:34;8.13;;;6.03;;
2476;SDS011;1249;51.270;6.756;2023-04-15T05:53:00;8.80;;;5.47;;
2476;SDS011;1249;51.270;6.756;2023-04-15T05:55:26;7.70;;;6.00;;
2476;SDS011;1249;51.270;6.756;2023-04-15T05:57:51;8.20;;;5.67;;
2476;SDS011;1249;51.270;6.756;2023-04-15T06:00:17;7.17;;;5.70;;
2476;SDS011;1249;51.270;6.756;2023-04-15T06:02:42;6.70;;;5.57;;
2476;SDS011;1249;51.270;6.756;2023-04-15T06:05:08;7.40;;;6.03;;
2476;SDS011;1249;51.270;6.756;2023-04-15T06:07:35;7.30;;;6.27;;
2476;SDS011;1249;51.270;6.756;2023-04-15T06:10:02;8.03;;;5.33;;
2476;SDS011;1249;51.270;6.756;2023-04-15T06:12:28;6.47;;;5.87;;
2476;SDS011;1249;51.270;6.756;2023-04-15T06:14:54;6.40;;;5.20;;
2476;SDS011;1249;51.270;6.756;2023-04-15T06:17:19;7.60;;;5.93;;
2476;SDS011;1249;51.270;6.756;2023-04-15T06:19:45;7.43;;;6.50;;
2476;SDS011;1249;51.270;6.756;2023-04-15T06:22:10;8.43;;;5.83;;
2476;SDS011;1249;51.270;6.756;2023-04-15T06:24:36;7.17;;;5.97;;
2476;SDS011;1249;51.270;6.756;2023-04-15T06:27:01;7.63;;;6.17;;
2476;SDS011;1249;51.270;6.756;2023-04-15T06:29:27;8.83;;;6.47;;
2476;SDS011;1249;51.270;6.756;2023-04-15T06:31:53;7.20;;;5.10;;
2476;SDS011;1249;51.270;6.756;2023-04-15T06:34:20;6.40;;;5.53;;
2476;SDS011;1249;51.270;6.756;2023-04-15T06:36:46;7.77;;;5.73;;
2476;SDS011;1249;51.270;6.756;2023-04-15T06:39:12;6.53;;;5.73;;
2476;SDS011;1249;51.270;6.756;2023-04-15T06:41:37;6.47;;;5.63;;
2476;SDS011;1249;51.270;6.756;2023-04-15T06:44:03;8.97;;;5.10;;
2476;SDS011;1249;51.270;6.756;2023-04-15T06:46:29;6.27;;;5.67;;
2476;SDS011;1249;51.270;6.756;2023-04-15T06:48:54;8.67;;;6.03;;
2476;SDS011;1249;51.270;6.756;2023-04-15T06:51:20;5.43;;;4.93;;
2476;SDS011;1249;51.270;6.756;2023-04-15T06:53:47;6.70;;;6.10;;
2476;SDS011;1249;51.270;6.756;2023-04-15T06:56:13;5.17;;;4.73;;
2476;SDS011;1249;51.270;6.756;2023-04-15T06:58:39;20.47;;;6.80;;
2476;SDS011;1249;51.270;6.756;2023-04-15T07:01:04;7.10;;;5.63;;
2476;SDS011;1249;51.270;6.756;2023-04-15T07:03:30;8.53;;;5.17;;
2476;SDS011;1249;51.270;6.756;2023-04-15T07:05:56;6.27;;;5.00;;
2476;SDS011;1249;51.270;6.756;2023-04-15T07:08:22;8.27;;;5.57;;
2476;SDS011;1249;51.270;6.756;2023-04-15T07:10:48;6.70;;;5.00;;
2476;SDS011;1249;51.270;6.756;2023-04-15T07:13:14;6.20;;;5.47;;
2476;SDS011;1249;51.270;6.756;2023-04-15T07:15:39;7.17;;;5.30;;
2476;SDS011;1249;51.270;6.756;2023-04-15T07:18:05;8.87;;;6.33;;
2476;SDS011;1249;51.270;6.756;2023-04-15T07:20:30;7.67;;;6.13;;
2476;SDS011;1249;51.270;6.756;2023-04-15T07:22:56;5.13;;;4.73;;
2476;SDS011;1249;51.270;6.756;2023-04-15T07:25:22;7.03;;;5.33;;
2476;SDS011;1249;51.270;6.756;2023-04-15T07:27:47;9.00;;;5.47;;
2476;SDS011;1249;51.270;6.756;2023-04-15T07:30:13;6.07;;;5.47;;
2476;SDS011;1249;51.270;6.756;2023-04-15T07:32:40;6.07;;;5.47;;
2476;SDS011;1249;51.270;6.756;2023-04-15T07:35:07;6.13;;;5.53;;
2476;SDS011;1249;51.270;6.756;2023-04-15T07:37:33;4.93;;;4.20;;
2476;SDS011;1249;51.270;6.756;2023-04-15T07:40:00;6.57;;;4.83;;
2476;SDS011;1249;51.270;6.756;2023-04-15T07:42:25;6.57;;;5.33;;
2476;SDS011;1249;51.270;6.756;2023-04-15T07:44:51;6.33;;;4.90;;
2476;SDS011;1249;51.270;6.756;2023-04-15T07:47:17;6.77;;;5.20;;
2476;SDS011;1249;51.270;6.756;2023-04-15T07:49:42;5.27;;;4.40;;
2476;SDS011;1249;51.270;6.756;2023-04-15T07:52:08;6.03;;;4.40;;
2476;SDS011;1249;51.270;6.756;2023-04-15T07:54:34;5.00;;;4.40;;
2476;SDS011;1249;51.270;6.756;2023-04-15T07:56:59;4.10;;;3.73;;
2476;SDS011;1249;51.270;6.756;2023-04-15T07:59:25;3.93;;;3.57;;
2476;SDS011;1249;51.270;6.756;2023-04-15T08:01:53;4.33;;;3.63;;
2476;SDS011;1249;51.270;6.756;2023-04-15T08:04:19;4.93;;;3.83;;
2476;SDS011;1249;51.270;6.756;2023-04-15T08:06:45;5.03;;;4.50;;
2476;SDS011;1249;51.270;6.756;2023-04-15T08:09:12;3.57;;;3.27;;
2476;SDS011;1249;51.270;6.756;2023-04-15T08:11:37;3.73;;;3.43;;
2476;SDS011;1249;51.270;6.756;2023-04-15T08:14:03;3.40;;;3.00;;
2476;SDS011;1249;51.270;6.756;2023-04-15T08:16:28;3.27;;;2.70;;
2476;SDS011;1249;51.270;6.756;2023-04-15T08:18:54;14.03;;;4.73;;
2476;SDS011;1249;51.270;6.756;2023-04-15T08:21:20;4.60;;;3.00;;
2476;SDS011;1249;51.270;6.756;2023-04-15T08:23:47;4.00;;;3.03;;
2476;SDS011;1249;51.270;6.756;2023-04-15T08:26:14;2.73;;;2.60;;
2476;SDS011;1249;51.270;6.756;2023-04-15T08:28:40;4.20;;;2.77;;
2476;SDS011;1249;51.270;6.756;2023-04-15T08:31:06;2.90;;;2.70;;
2476;SDS011;1249;51.270;6.756;2023-04-15T08:33:33;3.77;;;3.23;;
2476;SDS011;1249;51.270;6.756;2023-04-15T08:35:58;5.43;;;3.23;;
2476;SDS011;1249;51.270;6.756;2023-04-15T08:38:24;4.40;;;3.43;;
2476;SDS011;1249;51.270;6.756;2023-04-15T08:40:50;4.10;;;3.63;;
2476;SDS011;1249;51.270;6.756;2023-04-15T08:43:23;4.07;;;3.40;;
2476;SDS011;1249;51.270;6.756;2023-04-15T08:45:53;4.43;;;3.13;;
2476;SDS011;1249;51.270;6.756;2023-04-15T08:48:19;7.73;;;3.87;;
2476;SDS011;1249;51.270;6.756;2023-04-15T08:50:48;3.33;;;2.70;;
2476;SDS011;1249;51.270;6.756;2023-04-15T08:53:15;4.83;;;3.50;;
2476;SDS011;1249;51.270;6.756;2023-04-15T08:55:42;15.47;;;4.27;;
2476;SDS011;1249;51.270;6.756;2023-04-15T08:58:10;6.67;;;3.87;;
2476;SDS011;1249;51.270;6.756;2023-04-15T09:00:37;109.00;;;9.50;;
2476;SDS011;1249;51.270;6.756;2023-04-15T09:03:03;5.40;;;4.00;;
2476;SDS011;1249;51.270;6.756;2023-04-15T09:05:32;6.50;;;3.20;;
2476;SDS011;1249;51.270;6.756;2023-04-15T09:07:59;3.57;;;3.27;;
2476;SDS011;1249;51.270;6.756;2023-04-15T09:10:26;4.53;;;3.50;;
2476;SDS011;1249;51.270;6.756;2023-04-15T09:12:53;3.57;;;3.20;;
2476;SDS011;1249;51.270;6.756;2023-04-15T09:15:19;5.10;;;2.87;;
2476;SDS011;1249;51.270;6.756;2023-04-15T09:17:45;2.90;;;2.60;;
2476;SDS011;1249;51.270;6.756;2023-04-15T09:20:11;2.57;;;2.33;;
2476;SDS011;1249;51.270;6.756;2023-04-15T09:22:38;4.40;;;2.87;;
2476;SDS011;1249;51.270;6.756;2023-04-15T09:27:52;3.83;;;2.40;;
2476;SDS011;1249;51.270;6.756;2023-04-15T09:30:19;2.70;;;2.50;;
2476;SDS011;1249;51.270;6.756;2023-04-15T09:32:48;3.80;;;2.63;;
2476;SDS011;1249;51.270;6.756;2023-04-15T09:35:19;3.07;;;2.77;;
2476;SDS011;1249;51.270;6.756;2023-04-15T09:37:45;3.23;;;2.30;;
2476;SDS011;1249;51.270;6.756;2023-04-15T09:40:11;2.83;;;2.63;;
2476;SDS011;1249;51.270;6.756;2023-04-15T09:42:53;4.00;;;3.60;;
2476;SDS011;1249;51.270;6.756;2023-04-15T09:45:20;3.10;;;2.80;;
2476;SDS011;1249;51.270;6.756;2023-04-15T09:47:46;3.20;;;2.87;;
2476;SDS011;1249;51.270;6.756;2023-04-15T09:50:11;3.10;;;2.80;;
2476;SDS011;1249;51.270;6.756;2023-04-15T09:52:41;4.63;;;2.63;;
2476;SDS011;1249;51.270;6.756;2023-04-15T09:55:07;3.60;;;3.30;;
2476;SDS011;1249;51.270;6.756;2023-04-15T09:57:34;3.60;;;2.67;;
2476;SDS011;1249;51.270;6.756;2023-04-15T10:00:04;3.27;;;3.07;;
2476;SDS011;1249;51.270;6.756;2023-04-15T10:02:32;3.57;;;2.97;;
2476;SDS011;1249;51.270;6.756;2023-04-15T10:04:59;3.60;;;3.20;;
2476;SDS011;1249;51.270;6.756;2023-04-15T10:07:25;2.87;;;2.47;;
2476;SDS011;1249;51.270;6.756;2023-04-15T10:09:51;4.13;;;3.50;;
2476;SDS011;1249;51.270;6.756;2023-04-15T10:12:18;4.90;;;3.33;;
2476;SDS011;1249;51.270;6.756;2023-04-15T10:14:44;4.57;;;3.73;;
2476;SDS011;1249;51.270;6.756;2023-04-15T10:17:16;3.73;;;3.43;;
2476;SDS011;1249;51.270;6.756;2023-04-15T10:19:45;3.90;;;3.47;;
2476;SDS011;1249;51.270;6.756;2023-04-15T10:22:12;2.90;;;2.50;;
2476;SDS011;1249;51.270;6.756;2023-04-15T10:24:38;3.53;;;3.23;;
2476;SDS011;1249;51.270;6.756;2023-04-15T10:27:04;3.33;;;3.03;;
2476;SDS011;1249;51.270;6.756;2023-04-15T10:29:30;3.20;;;2.80;;
2476;SDS011;1249;51.270;6.756;2023-04-15T10:31:57;3.33;;;3.13;;
2476;SDS011;1249;51.270;6.756;2023-04-15T10:34:24;2.60;;;2.40;;
2476;SDS011;1249;51.270;6.756;2023-04-15T10:36:53;3.30;;;2.67;;
2476;SDS011;1249;51.270;6.756;2023-04-15T10:44:41;3.80;;;3.27;;
2476;SDS011;1249;51.270;6.756;2023-04-15T10:47:16;3.10;;;2.90;;
2476;SDS011;1249;51.270;6.756;2023-04-15T10:49:50;3.00;;;2.80;;
2476;SDS011;1249;51.270;6.756;2023-04-15T10:52:22;4.40;;;4.00;;
2476;SDS011;1249;51.270;6.756;2023-04-15T10:54:50;3.73;;;3.50;;
2476;SDS011;1249;51.270;6.756;2023-04-15T10:57:27;3.40;;;3.10;;
2476;SDS011;1249;51.270;6.756;2023-04-15T11:00:08;3.67;;;3.13;;
2476;SDS011;1249;51.270;6.756;2023-04-15T11:02:47;3.43;;;3.13;;
2476;SDS011;1249;51.270;6.756;2023-04-15T11:05:18;3.57;;;3.20;;
2476;SDS011;1249;51.270;6.756;2023-04-15T11:12:46;3.00;;;2.80;;
2476;SDS011;1249;51.270;6.756;2023-04-15T11:20:35;3.77;;;3.47;;
2476;SDS011;1249;51.270;6.756;2023-04-15T11:23:03;3.07;;;2.87;;
2476;SDS011;1249;51.270;6.756;2023-04-15T11:25:30;4.50;;;4.10;;
2476;SDS011;1249;51.270;6.756;2023-04-15T11:27:57;3.60;;;3.40;;
2476;SDS011;1249;51.270;6.756;2023-04-15T11:30:25;4.07;;;3.70;;
2476;SDS011;1249;51.270;6.756;2023-04-15T11:33:26;3.90;;;3.50;;
2476;SDS011;1249;51.270;6.756;2023-04-15T11:35:46;3.33;;;3.03;;
2476;SDS011;1249;51.270;6.756;2023-04-15T11:38:12;6.20;;;3.53;;
2476;SDS011;1249;51.270;6.756;2023-04-15T11:40:38;3.47;;;3.17;;
2476;SDS011;1249;51.270;6.756;2023-04-15T11:45:35;4.50;;;3.80;;
2476;SDS011;1249;51.270;6.756;2023-04-15T11:48:05;3.70;;;3.40;;
2476;SDS011;1249;51.270;6.756;2023-04-15T11:50:32;2.57;;;2.30;;
2476;SDS011;1249;51.270;6.756;2023-04-15T11:52:58;3.40;;;3.10;;
2476;SDS011;1249;51.270;6.756;2023-04-15T11:55:25;4.83;;;4.43;;
2476;SDS011;1249;51.270;6.756;2023-04-15T12:00:37;7.20;;;6.40;;
2476;SDS011;1249;51.270;6.756;2023-04-15T12:03:13;7.87;;;7.17;;
2476;SDS011;1249;51.270;6.756;2023-04-15T12:11:37;4.60;;;4.20;;
2476;SDS011;1249;51.270;6.756;2023-04-15T12:14:20;5.60;;;5.07;;
2476;SDS011;1249;51.270;6.756;2023-04-15T12:16:50;5.70;;;5.20;;
2476;SDS011;1249;51.270;6.756;2023-04-15T12:19:24;5.03;;;4.50;;
2476;SDS011;1249;51.270;6.756;2023-04-15T12:22:12;5.80;;;4.37;;
2476;SDS011;1249;51.270;6.756;2023-04-15T12:24:40;4.53;;;3.90;;
2476;SDS011;1249;51.270;6.756;2023-04-15T12:27:13;5.03;;;4.63;;
2476;SDS011;1249;51.270;6.756;2023-04-15T12:29:40;5.83;;;5.23;;
2476;SDS011;1249;51.270;6.756;2023-04-15T12:32:10;5.10;;;4.77;;
2476;SDS011;1249;51.270;6.756;2023-04-15T12:34:38;4.70;;;4.40;;
2476;SDS011;1249;51.270;6.756;2023-04-15T12:37:06;4.77;;;4.37;;
2476;SDS011;1249;51.270;6.756;2023-04-15T12:39:34;3.80;;;3.50;;
2476;SDS011;1249;51.270;6.756;2023-04-15T12:42:02;3.70;;;3.40;;
2476;SDS011;1249;51.270;6.756;2023-04-15T12:44:29;4.80;;;3.37;;
2476;SDS011;1249;51.270;6.756;2023-04-15T12:46:55;4.30;;;4.00;;
2476;SDS011;1249;51.270;6.756;2023-04-15T12:49:21;4.00;;;3.50;;
2476;SDS011;1249;51.270;6.756;2023-04-15T12:51:48;5.10;;;4.40;;
2476;SDS011;1249;51.270;6.756;2023-04-15T12:54:18;6.53;;;5.73;;
2476;SDS011;1249;51.270;6.756;2023-04-15T12:56:44;4.67;;;4.20;;
2476;SDS011;1249;51.270;6.756;2023-04-15T12:59:10;5.23;;;4.73;;
2476;SDS011;1249;51.270;6.756;2023-04-15T13:01:37;4.90;;;4.40;;
2476;SDS011;1249;51.270;6.756;2023-04-15T13:04:03;4.83;;;4.33;;
2476;SDS011;1249;51.270;6.756;2023-04-15T13:06:29;6.30;;;3.60;;
2476;SDS011;1249;51.270;6.756;2023-04-15T13:08:57;4.27;;;3.87;;
2476;SDS011;1249;51.270;6.756;2023-04-15T13:11:23;4.70;;;4.30;;
2476;SDS011;1249;51.270;6.756;2023-04-15T13:13:49;5.30;;;4.80;;
2476;SDS011;1249;51.270;6.756;2023-04-15T13:16:16;4.80;;;4.37;;
2476;SDS011;1249;51.270;6.756;2023-04-15T13:18:43;3.37;;;3.07;;
2476;SDS011;1249;51.270;6.756;2023-04-15T13:21:10;3.50;;;3.20;;
2476;SDS011;1249;51.270;6.756;2023-04-15T13:23:36;3.73;;;3.43;;
2476;SDS011;1249;51.270;6.756;2023-04-15T13:26:02;3.50;;;3.13;;
2476;SDS011;1249;51.270;6.756;2023-04-15T13:28:28;7.50;;;3.90;;
2476;SDS011;1249;51.270;6.756;2023-04-15T13:30:53;3.50;;;3.20;;
2476;SDS011;1249;51.270;6.756;2023-04-15T13:33:19;4.53;;;3.33;;
2476;SDS011;1249;51.270;6.756;2023-04-15T13:35:45;3.63;;;3.33;;
2476;SDS011;1249;51.270;6.756;2023-04-15T13:38:10;3.57;;;2.97;;
2476;SDS011;1249;51.270;6.756;2023-04-15T13:40:36;3.83;;;3.50;;
2476;SDS011;1249;51.270;6.756;2023-04-15T13:43:01;3.00;;;2.80;;
2476;SDS011;1249;51.270;6.756;2023-04-15T13:45:28;4.00;;;3.00;;
2476;SDS011;1249;51.270;6.756;2023-04-15T13:47:54;4.50;;;2.57;;
2476;SDS011;1249;51.270;6.756;2023-04-15T13:50:21;3.03;;;2.73;;
2476;SDS011;1249;51.270;6.756;2023-04-15T13:52:46;4.43;;;3.07;;
2476;SDS011;1249;51.270;6.756;2023-04-15T13:55:12;3.20;;;2.63;;
2476;SDS011;1249;51.270;6.756;2023-04-15T13:57:38;5.27;;;2.90;;
2476;SDS011;1249;51.270;6.756;2023-04-15T14:00:03;2.90;;;2.60;;
2476;SDS011;1249;51.270;6.756;2023-04-15T14:02:31;3.30;;;2.70;;
2476;SDS011;1249;51.270;6.756;2023-04-15T14:04:57;3.63;;;2.80;;
2476;SDS011;1249;51.270;6.756;2023-04-15T14:07:23;2.63;;;2.43;;
2476;SDS011;1249;51.270;6.756;2023-04-15T14:09:48;2.90;;;2.47;;
2476;SDS011;1249;51.270;6.756;2023-04-15T14:12:14;2.93;;;2.73;;
2476;SDS011;1249;51.270;6.756;2023-04-15T14:14:39;8.50;;;2.50;;
2476;SDS011;1249;51.270;6.756;2023-04-15T14:17:05;3.90;;;2.80;;
2476;SDS011;1249;51.270;6.756;2023-04-15T14:19:32;4.10;;;2.70;;
2476;SDS011;1249;51.270;6.756;2023-04-15T14:21:58;2.93;;;2.73;;
2476;SDS011;1249;51.270;6.756;2023-04-15T14:24:24;4.73;;;2.80;;
2476;SDS011;1249;51.270;6.756;2023-04-15T14:26:50;4.00;;;2.80;;
2476;SDS011;1249;51.270;6.756;2023-04-15T14:29:15;3.70;;;2.33;;
2476;SDS011;1249;51.270;6.756;2023-04-15T14:31:41;4.57;;;2.97;;
2476;SDS011;1249;51.270;6.756;2023-04-15T14:34:08;4.03;;;2.97;;
2476;SDS011;1249;51.270;6.756;2023-04-15T14:36:35;4.10;;;2.60;;
2476;SDS011;1249;51.270;6.756;2023-04-15T14:39:00;2.80;;;2.50;;
2476;SDS011;1249;51.270;6.756;2023-04-15T14:41:27;2.97;;;2.67;;
2476;SDS011;1249;51.270;6.756;2023-04-15T14:43:53;2.87;;;2.57;;
2476;SDS011;1249;51.270;6.756;2023-04-15T14:46:19;2.63;;;2.27;;
2476;SDS011;1249;51.270;6.756;2023-04-15T14:48:45;2.93;;;2.63;;
2476;SDS011;1249;51.270;6.756;2023-04-15T14:51:10;2.47;;;2.17;;
2476;SDS011;1249;51.270;6.756;2023-04-15T14:53:36;2.60;;;2.40;;
2476;SDS011;1249;51.270;6.756;2023-04-15T14:56:01;2.70;;;2.30;;
2476;SDS011;1249;51.270;6.756;2023-04-15T14:58:27;2.50;;;2.30;;
2476;SDS011;1249;51.270;6.756;2023-04-15T15:00:52;3.10;;;2.60;;
2476;SDS011;1249;51.270;6.756;2023-04-15T15:03:18;6.90;;;2.80;;
2476;SDS011;1249;51.270;6.756;2023-04-15T15:05:44;3.20;;;2.37;;
2476;SDS011;1249;51.270;6.756;2023-04-15T15:08:11;2.80;;;2.60;;
2476;SDS011;1249;51.270;6.756;2023-04-15T15:10:37;4.80;;;3.00;;
2476;SDS011;1249;51.270;6.756;2023-04-15T15:13:07;6.07;;;3.00;;
2476;SDS011;1249;51.270;6.756;2023-04-15T15:15:34;7.30;;;3.20;;
2476;SDS011;1249;51.270;6.756;2023-04-15T15:18:01;4.20;;;2.50;;
2476;SDS011;1249;51.270;6.756;2023-04-15T15:20:28;5.33;;;2.60;;
2476;SDS011;1249;51.270;6.756;2023-04-15T15:22:54;3.50;;;2.93;;
2476;SDS011;1249;51.270;6.756;2023-04-15T15:25:19;9.13;;;2.77;;
2476;SDS011;1249;51.270;6.756;2023-04-15T15:27:45;2.70;;;2.50;;
2476;SDS011;1249;51.270;6.756;2023-04-15T15:30:11;2.97;;;2.77;;
2476;SDS011;1249;51.270;6.756;2023-04-15T15:32:38;3.00;;;2.57;;
2476;SDS011;1249;51.270;6.756;2023-04-15T15:35:04;4.97;;;3.00;;
2476;SDS011;1249;51.270;6.756;2023-04-15T15:37:30;2.33;;;2.20;;
2476;SDS011;1249;51.270;6.756;2023-04-15T15:39:55;4.00;;;2.30;;
2476;SDS011;1249;51.270;6.756;2023-04-15T15:42:21;3.23;;;2.93;;